Time;durP1;ratioP1;P1;durP2;ratioP2;P2;SDS_P1;SDS_P2;PMS_P1;PMS_P2;Temp;Humidity;BMP_temperature;BMP_pressure;BME280_temperature;BME280_humidity;BME280_pressure;Samples;Min_cycle;Max_cycle;Signal;HPM_P1;HPM_P2
2023/05/10 01:40:44;;;;;;;;;;;;;;;;;;;;;
2023/05/10 03:52:29;;;;;;;34.30;9.93;;;19.60;61.10;;;;;;5060645;23;20233;-96
2023/05/10 04:14:04;;;;;;;38.20;9.50;;;19.70;61.40;;;;;;5768571;23;20220;-96
2023/05/10 04:16:36;;;;;;;21.20;7.73;;;19.70;61.40;;;;;;5017696;28;20201;-96
2023/05/10 04:19:10;;;;;;;21.93;8.03;;;19.70;61.40;;;;;;5018693;28;20212;-96
2023/05/10 04:21:58;;;;;;;25.07;8.00;;;19.70;61.40;;;;;;5027077;28;20235;-96
2023/05/10 04:24:49;;;;;;;16.67;7.33;;;19.70;61.40;;;;;;5016832;28;20232;-96
2023/05/10 04:34:02;;;;;;;18.27;6.80;;;19.80;61.50;;;;;;5018321;28;20204;-96
2023/05/10 04:43:07;;;;;;;46.53;9.83;;;19.70;61.40;;;;;;5651318;23;20212;-96
2023/05/10 04:45:35;;;;;;;152.50;19.60;;;19.60;61.30;;;;;;5315543;23;20202;-92
2023/05/10 04:48:03;;;;;;;29.33;8.73;;;19.70;61.40;;;;;;5012023;28;20625;-94
2023/05/10 04:50:30;;;;;;;21.70;7.17;;;19.60;61.30;;;;;;5011898;28;20302;-95
2023/05/10 04:52:58;;;;;;;27.80;7.90;;;19.60;61.30;;;;;;5011223;28;20232;-94
2023/05/10 04:55:26;;;;;;;37.07;8.27;;;19.60;61.30;;;;;;5010540;28;20236;-95
2023/05/10 04:57:55;;;;;;;35.50;9.07;;;19.70;61.50;;;;;;5011333;28;20213;-96
2023/05/10 05:00:22;;;;;;;36.17;9.30;;;19.60;61.40;;;;;;5012780;28;20296;-94
2023/05/10 05:02:51;;;;;;;40.77;9.17;;;19.60;61.40;;;;;;5013160;28;20217;-94
2023/05/10 05:05:20;;;;;;;41.67;9.80;;;19.60;61.40;;;;;;5001658;28;20207;-94
2023/05/10 05:07:49;;;;;;;43.40;9.20;;;19.60;61.40;;;;;;4995076;28;20280;-94
2023/05/10 05:10:18;;;;;;;51.97;10.27;;;19.60;61.40;;;;;;5009305;28;20273;-93
2023/05/10 05:12:45;;;;;;;45.77;9.10;;;19.60;61.40;;;;;;5011347;28;20224;-93
2023/05/10 05:15:12;;;;;;;40.60;8.87;;;19.60;61.40;;;;;;5011130;28;20259;-92
2023/05/10 05:17:39;;;;;;;32.57;7.50;;;19.60;61.40;;;;;;5010750;28;20292;-93
2023/05/10 05:20:08;;;;;;;36.93;9.13;;;19.60;61.40;;;;;;5009716;28;20291;-94
2023/05/10 05:22:34;;;;;;;38.27;8.63;;;19.60;61.40;;;;;;5005143;28;20577;-95
2023/05/10 05:25:03;;;;;;;38.27;9.33;;;19.60;61.40;;;;;;5002650;28;20630;-92
2023/05/10 05:27:31;;;;;;;47.67;9.10;;;19.60;61.40;;;;;;5010733;28;20212;-92
2023/05/10 05:29:59;;;;;;;39.93;8.57;;;19.60;61.40;;;;;;5010432;28;20209;-93
2023/05/10 05:32:26;;;;;;;33.57;8.13;;;19.60;61.40;;;;;;5010733;28;20216;-92
2023/05/10 05:34:53;;;;;;;54.57;10.37;;;19.60;61.40;;;;;;5007851;28;20236;-93
2023/05/10 05:37:22;;;;;;;62.63;10.87;;;19.60;61.40;;;;;;5005861;28;20650;-92
2023/05/10 05:39:49;;;;;;;36.30;8.80;;;19.60;61.40;;;;;;5009995;28;21011;-93
2023/05/10 05:42:18;;;;;;;35.83;7.73;;;19.60;61.40;;;;;;5008684;28;20249;-92
2023/05/10 05:44:47;;;;;;;42.73;9.27;;;19.60;61.40;;;;;;5001093;28;20690;-95
2023/05/10 05:47:14;;;;;;;36.30;8.60;;;19.60;61.40;;;;;;4991013;28;20209;-93
2023/05/10 05:49:41;;;;;;;36.00;8.47;;;19.60;61.40;;;;;;4990820;28;20205;-92
2023/05/10 05:52:11;;;;;;;58.57;10.37;;;19.60;61.40;;;;;;4994362;28;20252;-93
2023/05/10 05:54:38;;;;;;;38.57;8.30;;;19.60;61.40;;;;;;5006024;28;20223;-92
2023/05/10 05:57:05;;;;;;;39.40;8.83;;;19.60;61.40;;;;;;5009862;28;20205;-92
2023/05/10 05:59:32;;;;;;;38.33;8.20;;;19.60;61.40;;;;;;5007702;28;20260;-93
2023/05/10 06:02:01;;;;;;;50.87;9.57;;;19.60;61.50;;;;;;5007762;28;20631;-93
2023/05/10 06:04:28;;;;;;;33.37;8.50;;;19.60;61.40;;;;;;5009586;28;20208;-93
2023/05/10 06:06:56;;;;;;;35.00;7.83;;;19.70;61.50;;;;;;5009482;28;20202;-93
2023/05/10 06:09:24;;;;;;;45.67;9.70;;;19.60;61.50;;;;;;5010000;28;20202;-93
2023/05/10 06:11:51;;;;;;;46.83;9.00;;;19.70;61.50;;;;;;5008346;28;20229;-92
2023/05/10 06:14:18;;;;;;;38.47;8.13;;;19.60;61.40;;;;;;5007362;28;20240;-94
2023/05/10 06:16:48;;;;;;;32.47;8.23;;;19.60;61.50;;;;;;5008572;28;20201;-94
2023/05/10 06:19:19;;;;;;;29.13;7.90;;;19.60;61.50;;;;;;5011725;28;20665;-96
2023/05/10 06:21:46;;;;;;;45.70;8.97;;;19.60;61.50;;;;;;5009598;28;20642;-92
2023/05/10 06:24:16;;;;;;;40.80;8.83;;;19.60;61.50;;;;;;5009924;28;20206;-93
2023/05/10 06:26:43;;;;;;;37.07;8.30;;;19.60;61.50;;;;;;5007057;28;20209;-92
2023/05/10 06:29:10;;;;;;;35.93;7.97;;;19.60;61.50;;;;;;5009327;28;20201;-94
2023/05/10 06:31:37;;;;;;;35.97;7.90;;;19.60;61.50;;;;;;5008699;28;20235;-92
2023/05/10 06:34:04;;;;;;;40.03;8.50;;;19.60;61.50;;;;;;5005927;28;20240;-92
2023/05/10 06:36:33;;;;;;;38.70;8.10;;;19.60;61.50;;;;;;5008352;28;20300;-93
2023/05/10 06:39:00;;;;;;;33.10;7.70;;;19.60;61.50;;;;;;5007863;28;20209;-94
2023/05/10 06:41:27;;;;;;;39.13;8.20;;;19.60;61.50;;;;;;5012274;28;20287;-93
2023/05/10 06:44:00;;;;;;;53.97;9.60;;;19.60;61.50;;;;;;5007987;28;20233;-96
2023/05/10 06:46:55;;;;;;;36.17;8.17;;;19.60;61.50;;;;;;5016544;28;20189;-95
2023/05/10 06:49:25;;;;;;;26.90;6.53;;;19.60;61.50;;;;;;5004841;28;20201;-96
2023/05/10 06:55:17;;;;;;;36.67;7.20;;;19.60;61.50;;;;;;5006469;28;20209;-95
2023/05/10 06:57:49;;;;;;;47.27;9.33;;;19.60;61.50;;;;;;5002858;28;20206;-96
2023/05/10 07:00:22;;;;;;;28.63;7.80;;;19.60;61.50;;;;;;5020082;28;20227;-95
2023/05/10 07:02:50;;;;;;;36.97;7.90;;;19.60;61.50;;;;;;5014306;28;20233;-96
2023/05/10 07:05:18;;;;;;;41.80;8.37;;;19.60;61.50;;;;;;5015797;28;20205;-96
2023/05/10 07:07:47;;;;;;;43.07;7.30;;;19.60;61.50;;;;;;5018825;28;20319;-96
2023/05/10 07:10:15;;;;;;;43.57;8.70;;;19.60;61.50;;;;;;5017666;28;20228;-95
2023/05/10 07:12:43;;;;;;;47.90;8.50;;;19.60;61.50;;;;;;5012258;28;20226;-94
2023/05/10 07:15:11;;;;;;;40.87;8.00;;;19.70;61.60;;;;;;5009349;28;20205;-94
2023/05/10 07:17:38;;;;;;;30.70;7.23;;;19.60;61.50;;;;;;5007871;28;20267;-92
2023/05/10 07:20:06;;;;;;;31.70;7.23;;;19.70;61.60;;;;;;5008067;28;20704;-92
2023/05/10 07:22:33;;;;;;;31.00;7.33;;;19.60;61.60;;;;;;5006191;28;20240;-95
2023/05/10 07:25:00;;;;;;;35.43;7.73;;;19.70;61.60;;;;;;5007848;28;20241;-93
2023/05/10 07:27:29;;;;;;;31.27;7.37;;;19.70;61.70;;;;;;4997562;28;20665;-92
2023/05/10 07:29:56;;;;;;;32.90;7.60;;;19.70;61.60;;;;;;5013029;28;20224;-93
2023/05/10 07:32:23;;;;;;;22.87;6.33;;;19.70;61.60;;;;;;5031422;28;20193;-93
2023/05/10 07:34:50;;;;;;;37.27;8.17;;;19.70;61.70;;;;;;5031363;28;20189;-92
2023/05/10 07:37:17;;;;;;;50.90;8.67;;;19.70;61.60;;;;;;5028496;28;20205;-93
2023/05/10 07:39:50;;;;;;;32.93;7.50;;;19.70;61.60;;;;;;5026047;28;20240;-94
2023/05/10 07:42:20;;;;;;;33.27;7.37;;;19.70;61.60;;;;;;5014398;28;20249;-93
2023/05/10 07:44:51;;;;;;;23.07;6.90;;;19.70;61.60;;;;;;5021871;28;20212;-92
2023/05/10 07:47:21;;;;;;;31.20;7.53;;;19.70;61.70;;;;;;5015683;28;20225;-95
2023/05/10 07:49:48;;;;;;;29.57;6.90;;;19.80;61.80;;;;;;5014966;28;20206;-93
2023/05/10 07:52:16;;;;;;;38.10;7.80;;;19.80;61.80;;;;;;5014975;28;20658;-93
2023/05/10 07:54:44;;;;;;;46.07;7.67;;;19.80;61.80;;;;;;5016587;28;20217;-95
2023/05/10 07:57:11;;;;;;;39.13;8.03;;;19.80;61.70;;;;;;5005882;28;20208;-94
2023/05/10 07:59:38;;;;;;;23.97;6.27;;;19.80;61.70;;;;;;5016520;28;20213;-94
2023/05/10 08:02:09;;;;;;;24.93;6.80;;;19.80;61.80;;;;;;5012187;28;20744;-94
2023/05/10 08:04:36;;;;;;;49.20;8.43;;;19.80;61.80;;;;;;5012250;28;20237;-94
2023/05/10 08:07:03;;;;;;;36.53;7.33;;;19.80;61.70;;;;;;5012756;28;20205;-93
2023/05/10 08:09:30;;;;;;;43.77;8.23;;;19.80;61.70;;;;;;5011174;28;20212;-94
2023/05/10 08:11:59;;;;;;;37.73;7.47;;;19.80;61.80;;;;;;5013528;28;20292;-93
2023/05/10 08:14:26;;;;;;;39.53;7.60;;;19.90;61.90;;;;;;5012688;28;20209;-93
2023/05/10 08:16:53;;;;;;;45.50;7.77;;;19.80;61.80;;;;;;5011383;28;20251;-93
2023/05/10 08:19:22;;;;;;;51.43;8.73;;;19.80;61.80;;;;;;5008842;28;20308;-92
2023/05/10 08:21:53;;;;;;;32.53;7.17;;;19.90;61.90;;;;;;4996283;28;20334;-95
2023/05/10 08:24:20;;;;;;;39.47;7.23;;;19.90;62.00;;;;;;5010289;28;20231;-95
2023/05/10 08:26:47;;;;;;;47.53;8.53;;;19.90;61.90;;;;;;5011189;28;20735;-94
2023/05/10 08:29:14;;;;;;;37.23;7.57;;;19.90;61.90;;;;;;5011536;28;20209;-94
2023/05/10 08:34:24;;;;;;;34.93;6.90;;;19.90;61.90;;;;;;5003372;28;20237;-94
2023/05/10 08:36:51;;;;;;;34.40;6.93;;;20.00;62.10;;;;;;4992452;28;20594;-96
2023/05/10 08:39:19;;;;;;;36.40;6.90;;;20.00;62.10;;;;;;4999012;28;20209;-93
2023/05/10 08:41:47;;;;;;;33.77;7.10;;;20.00;62.10;;;;;;5011628;28;20205;-93
2023/05/10 08:44:16;;;;;;;34.73;6.90;;;20.00;62.10;;;;;;5011025;28;20267;-93
2023/05/10 08:46:47;;;;;;;39.37;7.13;;;20.00;62.10;;;;;;5010211;28;20328;-93
2023/05/10 08:49:17;;;;;;;43.10;7.73;;;20.00;62.10;;;;;;5011300;28;20312;-92
2023/05/10 08:51:52;;;;;;;35.53;7.70;;;20.00;62.10;;;;;;5010257;28;20213;-93
2023/05/10 08:57:01;;;;;;;32.70;6.90;;;20.10;62.20;;;;;;4998643;28;20250;-93
2023/05/10 08:59:28;;;;;;;34.13;7.23;;;20.10;62.20;;;;;;4991811;28;20221;-95
2023/05/10 09:01:58;;;;;;;39.80;7.47;;;20.10;62.20;;;;;;4991203;28;20727;-93
2023/05/10 09:04:25;;;;;;;31.30;7.40;;;20.10;62.20;;;;;;4991628;28;20650;-94
2023/05/10 09:06:54;;;;;;;29.80;6.83;;;20.10;62.20;;;;;;4992416;28;20623;-95
2023/05/10 09:09:22;;;;;;;33.20;6.87;;;20.10;62.20;;;;;;5008145;28;20727;-94
2023/05/10 09:11:50;;;;;;;34.80;7.13;;;20.10;62.20;;;;;;5011514;28;20225;-94
2023/05/10 09:14:18;;;;;;;45.23;8.10;;;20.10;62.20;;;;;;5010492;28;20225;-94
2023/05/10 09:16:47;;;;;;;31.63;6.73;;;20.10;62.20;;;;;;5010967;28;20205;-94
2023/05/10 09:19:15;;;;;;;47.27;8.37;;;20.20;62.30;;;;;;5010622;28;20626;-95
2023/05/10 09:21:42;;;;;;;34.47;7.33;;;20.20;63.10;;;;;;5009914;28;20272;-93
2023/05/10 09:24:11;;;;;;;39.67;7.83;;;20.20;62.30;;;;;;5009664;28;20300;-95
2023/05/10 09:26:48;;;;;;;31.90;7.53;;;20.20;62.30;;;;;;5010025;28;20271;-94
2023/05/10 09:29:15;;;;;;;39.47;7.90;;;20.20;62.30;;;;;;5009736;28;20228;-93
2023/05/10 09:31:47;;;;;;;30.57;6.90;;;20.20;62.20;;;;;;5010631;28;20295;-93
2023/05/10 09:34:19;;;;;;;34.50;7.53;;;20.30;62.40;;;;;;5006035;28;20678;-94
2023/05/10 09:36:54;;;;;;;35.00;7.40;;;20.20;62.30;;;;;;5011149;28;20201;-96
2023/05/10 09:39:31;;;;;;;42.57;7.73;;;20.30;62.40;;;;;;5011195;28;20197;-94
2023/05/10 09:42:00;;;;;;;62.40;9.60;;;20.30;62.40;;;;;;5005478;28;20263;-93
2023/05/10 09:44:31;;;;;;;39.87;7.50;;;20.30;62.30;;;;;;5010703;28;20601;-95
2023/05/10 09:46:58;;;;;;;47.67;8.73;;;20.30;62.30;;;;;;5010229;28;20229;-94
2023/05/10 09:49:26;;;;;;;40.77;8.03;;;20.30;62.30;;;;;;5010877;28;20229;-94
2023/05/10 09:52:02;;;;;;;42.87;7.70;;;20.30;62.30;;;;;;5010181;28;20213;-92
2023/05/10 09:54:31;;;;;;;38.73;7.90;;;20.30;62.40;;;;;;5009840;28;20213;-95
2023/05/10 09:56:58;;;;;;;37.37;7.80;;;20.30;62.40;;;;;;5009168;28;20957;-94
2023/05/10 09:59:27;;;;;;;39.63;8.03;;;20.40;62.40;;;;;;5009425;28;20297;-96
2023/05/10 10:01:56;;;;;;;35.43;7.27;;;20.40;62.50;;;;;;5010914;28;20216;-93
2023/05/10 10:04:24;;;;;;;44.73;7.70;;;20.40;62.50;;;;;;5015742;28;20216;-94
2023/05/10 10:07:00;;;;;;;40.90;8.30;;;20.40;62.50;;;;;;5009951;28;20221;-93
2023/05/10 10:09:28;;;;;;;37.03;7.77;;;20.40;62.50;;;;;;5009940;28;20290;-93
2023/05/10 10:11:57;;;;;;;34.40;7.17;;;20.40;62.40;;;;;;5009543;28;20241;-91
2023/05/10 10:14:25;;;;;;;38.93;7.63;;;20.40;62.40;;;;;;5009661;28;20300;-92
2023/05/10 10:16:52;;;;;;;55.27;8.57;;;20.50;62.50;;;;;;5009348;28;20294;-92
2023/05/10 10:19:19;;;;;;;41.27;8.03;;;20.40;62.40;;;;;;5008740;28;20663;-92
2023/05/10 10:21:47;;;;;;;35.60;7.53;;;20.50;62.60;;;;;;5009188;28;20208;-93
2023/05/10 10:24:14;;;;;;;31.17;6.70;;;20.50;62.50;;;;;;5006681;28;20265;-91
2023/05/10 10:26:47;;;;;;;43.40;8.67;;;20.50;62.50;;;;;;5007741;28;20244;-88
2023/05/10 10:29:24;;;;;;;34.00;7.93;;;20.50;62.70;;;;;;5000755;28;20213;-92
2023/05/10 10:32:03;;;;;;;38.33;8.40;;;20.50;62.80;;;;;;5006014;28;20202;-94
2023/05/10 10:34:31;;;;;;;29.20;7.40;;;20.50;62.70;;;;;;4999829;28;20611;-95
2023/05/10 10:37:01;;;;;;;36.20;7.73;;;20.50;62.70;;;;;;5007048;28;20190;-95
2023/05/10 10:39:29;;;;;;;56.27;9.17;;;20.50;62.70;;;;;;5007685;28;20210;-95
2023/05/10 10:41:57;;;;;;;23.53;6.27;;;20.60;63.60;;;;;;5009599;28;20296;-96
2023/05/10 10:44:44;;;;;;;30.07;7.60;;;20.60;62.80;;;;;;5009990;28;20324;-93
2023/05/10 10:47:32;;;;;;;25.90;6.83;;;20.60;62.80;;;;;;5010161;28;20216;-96
2023/05/10 10:50:07;;;;;;;30.37;7.43;;;20.70;63.00;;;;;;5006058;28;20275;-93
2023/05/10 10:52:37;;;;;;;26.80;6.73;;;20.60;62.90;;;;;;4999090;28;20212;-92
2023/05/10 10:55:07;;;;;;;42.53;8.13;;;20.70;62.90;;;;;;5007321;28;20205;-93
2023/05/10 10:57:44;;;;;;;24.33;6.23;;;20.70;62.90;;;;;;5009691;28;20209;-93
2023/05/10 11:00:28;;;;;;;25.70;6.40;;;20.70;63.00;;;;;;5009273;28;20364;-91
2023/05/10 11:02:58;;;;;;;36.37;7.03;;;20.70;62.90;;;;;;5008307;28;20705;-91
2023/05/10 11:05:38;;;;;;;36.00;7.17;;;20.70;62.90;;;;;;5007203;28;20664;-92
2023/05/10 11:08:27;;;;;;;24.13;6.73;;;20.70;62.90;;;;;;5003660;28;20208;-92
2023/05/10 11:11:07;;;;;;;30.00;7.70;;;20.80;63.10;;;;;;5005526;28;20321;-93
2023/05/10 11:13:39;;;;;;;23.40;6.33;;;20.70;62.90;;;;;;4989335;28;20198;-93
2023/05/10 11:16:18;;;;;;;42.17;8.10;;;20.80;63.00;;;;;;5012611;28;20194;-92
2023/05/10 11:18:59;;;;;;;32.17;7.30;;;20.80;63.10;;;;;;5020219;28;20185;-93
2023/05/10 11:21:28;;;;;;;38.53;7.70;;;20.80;63.10;;;;;;5015066;28;20607;-91
2023/05/10 11:23:58;;;;;;;29.80;7.30;;;20.80;63.00;;;;;;5015573;28;20225;-93
2023/05/10 11:26:26;;;;;;;22.93;6.07;;;20.80;63.00;;;;;;5014769;28;20309;-92
2023/05/10 11:28:56;;;;;;;34.10;7.40;;;20.80;63.00;;;;;;5003057;28;20693;-95
2023/05/10 11:31:26;;;;;;;29.20;6.87;;;20.90;63.20;;;;;;4991685;28;20233;-95
2023/05/10 11:33:55;;;;;;;31.37;7.13;;;20.90;63.20;;;;;;4992184;28;20205;-94
2023/05/10 11:36:24;;;;;;;40.77;8.10;;;20.90;63.10;;;;;;4990376;28;20215;-93
2023/05/10 11:38:51;;;;;;;33.33;7.20;;;20.90;63.20;;;;;;4992706;28;20596;-95
2023/05/10 11:41:21;;;;;;;43.23;7.77;;;20.90;63.10;;;;;;5008851;28;20232;-93
2023/05/10 11:43:50;;;;;;;35.57;7.13;;;21.00;63.30;;;;;;5008785;28;20268;-95
2023/05/10 11:46:21;;;;;;;40.03;7.53;;;21.00;63.30;;;;;;5009002;28;20647;-95
2023/05/10 11:48:51;;;;;;;34.77;7.07;;;21.00;63.30;;;;;;5008535;28;20282;-92
2023/05/10 11:51:22;;;;;;;42.00;7.90;;;21.00;63.30;;;;;;5007577;28;20206;-94
2023/05/10 11:53:50;;;;;;;37.87;7.23;;;21.00;63.30;;;;;;5008426;28;20670;-93
2023/05/10 11:56:20;;;;;;;48.30;8.23;;;21.00;63.30;;;;;;5008195;28;20291;-95
2023/05/10 11:58:54;;;;;;;53.83;9.03;;;21.10;63.30;;;;;;5008377;28;20201;-92
2023/05/10 12:01:24;;;;;;;33.37;7.50;;;21.10;63.40;;;;;;5008613;28;20292;-93
2023/05/10 12:03:59;;;;;;;35.87;7.33;;;21.10;63.40;;;;;;5008148;28;20331;-91
2023/05/10 12:06:28;;;;;;;54.40;9.40;;;21.20;63.50;;;;;;4989003;28;20197;-95
2023/05/10 12:08:55;;;;;;;53.23;8.60;;;21.10;63.30;;;;;;4988581;28;20637;-95
2023/05/10 12:11:26;;;;;;;41.07;7.67;;;21.20;63.40;;;;;;4989386;28;20284;-95
2023/05/10 12:13:53;;;;;;;42.13;7.53;;;21.20;63.50;;;;;;4988621;28;20257;-92
2023/05/10 12:16:21;;;;;;;38.60;7.60;;;21.20;63.40;;;;;;4989068;28;20709;-94
2023/05/10 12:18:50;;;;;;;36.97;7.10;;;21.20;63.50;;;;;;5002386;28;20217;-92
2023/05/10 12:21:20;;;;;;;42.90;7.80;;;21.30;63.60;;;;;;5003259;28;20651;-93
2023/05/10 12:23:50;;;;;;;41.80;7.30;;;21.30;63.60;;;;;;4991657;28;20224;-92
2023/05/10 12:26:17;;;;;;;44.10;7.87;;;21.30;63.60;;;;;;4991665;28;20281;-92
2023/05/10 12:28:44;;;;;;;37.50;7.40;;;21.30;63.60;;;;;;4996100;28;20254;-93
2023/05/10 12:31:11;;;;;;;45.23;8.17;;;21.30;63.60;;;;;;5012237;28;20205;-91
2023/05/10 12:33:41;;;;;;;48.63;8.10;;;21.30;63.60;;;;;;5012063;28;20729;-94
2023/05/10 12:36:09;;;;;;;42.17;7.67;;;21.40;63.60;;;;;;5011470;28;20251;-95
2023/05/10 12:38:39;;;;;;;40.93;7.40;;;21.40;63.60;;;;;;5012087;28;20670;-94
2023/05/10 12:41:08;;;;;;;43.73;7.83;;;21.40;63.70;;;;;;5012340;28;20281;-95
2023/05/10 12:43:35;;;;;;;36.53;7.23;;;21.50;63.80;;;;;;5011143;28;20320;-94
2023/05/10 12:46:08;;;;;;;41.87;7.87;;;21.40;63.60;;;;;;5011370;28;20217;-93
2023/05/10 12:48:35;;;;;;;34.00;6.93;;;21.50;63.80;;;;;;5012045;28;20216;-96
2023/05/10 12:51:03;;;;;;;39.20;7.37;;;21.50;63.70;;;;;;5011859;28;20292;-94
2023/05/10 12:53:30;;;;;;;87.50;11.77;;;21.50;63.70;;;;;;5009271;28;20194;-92
2023/05/10 12:55:59;;;;;;;33.23;6.80;;;21.50;63.70;;;;;;5007999;28;20211;-96
2023/05/10 12:58:26;;;;;;;42.50;7.50;;;21.60;63.90;;;;;;5011548;28;20293;-93
2023/05/10 13:00:53;;;;;;;39.70;7.00;;;21.60;63.80;;;;;;5010731;28;20285;-92
2023/05/10 13:03:21;;;;;;;38.30;7.07;;;21.70;63.90;;;;;;5011067;28;20221;-91
2023/05/10 13:05:48;;;;;;;45.17;7.70;;;21.60;63.80;;;;;;5011155;28;20271;-92
2023/05/10 13:08:15;;;;;;;41.73;7.40;;;21.80;64.00;;;;;;5010340;28;20197;-91
2023/05/10 13:10:42;;;;;;;38.27;7.20;;;21.70;63.90;;;;;;5010925;28;20320;-95
2023/05/10 13:13:10;;;;;;;47.33;7.97;;;21.70;63.90;;;;;;5011833;28;20197;-96
2023/05/10 13:15:38;;;;;;;38.87;6.63;;;21.80;64.00;;;;;;5011932;28;20201;-96
2023/05/10 13:18:06;;;;;;;34.80;7.07;;;21.80;64.00;;;;;;5011335;28;20213;-96
2023/05/10 13:20:33;;;;;;;36.73;7.20;;;21.80;64.00;;;;;;5010720;28;20248;-94
2023/05/10 13:23:00;;;;;;;32.03;6.90;;;21.90;64.20;;;;;;5010835;28;20280;-93
2023/05/10 13:25:27;;;;;;;35.40;6.83;;;21.90;64.10;;;;;;4991796;28;20190;-96
2023/05/10 13:27:54;;;;;;;30.43;6.23;;;21.90;64.10;;;;;;4991970;28;20283;-95
2023/05/10 13:30:23;;;;;;;44.87;7.30;;;21.90;64.10;;;;;;4990977;28;20214;-94
2023/05/10 13:32:50;;;;;;;30.27;5.67;;;22.00;65.00;;;;;;5011629;28;20216;-95
2023/05/10 13:35:17;;;;;;;38.43;7.10;;;22.00;64.20;;;;;;5016711;28;20248;-96
2023/05/10 13:37:46;;;;;;;34.20;7.00;;;22.00;64.10;;;;;;5012543;28;20225;-94
2023/05/10 13:40:13;;;;;;;34.27;6.37;;;22.10;64.20;;;;;;5011324;28;20312;-95
2023/05/10 13:42:40;;;;;;;36.17;6.90;;;22.10;64.20;;;;;;5010914;28;20285;-95
2023/05/10 13:45:08;;;;;;;44.60;7.57;;;22.10;64.20;;;;;;5010834;28;20278;-93
2023/05/10 13:47:37;;;;;;;72.13;9.63;;;22.20;64.30;;;;;;5007215;28;20212;-92
2023/05/10 13:50:04;;;;;;;31.80;6.33;;;22.20;64.30;;;;;;5009456;28;20218;-94
2023/05/10 13:52:31;;;;;;;33.53;6.23;;;22.20;64.30;;;;;;5011230;28;20189;-95
2023/05/10 13:54:59;;;;;;;45.80;7.20;;;22.30;64.40;;;;;;5004102;28;20210;-95
2023/05/10 13:57:30;;;;;;;44.50;7.43;;;22.30;64.40;;;;;;5006549;28;20665;-95
2023/05/10 14:00:00;;;;;;;32.40;5.93;;;22.30;64.30;;;;;;5004001;28;20213;-95
2023/05/10 14:02:27;;;;;;;57.80;8.73;;;22.40;64.40;;;;;;5011221;28;20216;-95
2023/05/10 14:04:56;;;;;;;38.63;6.80;;;22.40;64.30;;;;;;5011662;28;20716;-93
2023/05/10 14:07:23;;;;;;;51.43;7.80;;;22.40;64.30;;;;;;5010274;28;20212;-93
2023/05/10 14:09:50;;;;;;;30.70;6.07;;;22.50;64.30;;;;;;5010238;28;20632;-94
2023/05/10 14:12:20;;;;;;;34.83;6.93;;;22.50;64.30;;;;;;5009942;28;20261;-92
2023/05/10 14:14:47;;;;;;;37.37;6.47;;;22.50;64.30;;;;;;5010196;28;20237;-92
2023/05/10 14:17:14;;;;;;;44.03;7.43;;;22.50;64.20;;;;;;5009480;28;20236;-93
2023/05/10 14:19:41;;;;;;;38.63;6.87;;;22.60;64.30;;;;;;5009788;28;20206;-92
2023/05/10 14:22:11;;;;;;;37.10;6.67;;;22.60;64.20;;;;;;5009992;28;20197;-92
2023/05/10 14:24:39;;;;;;;41.40;6.87;;;22.60;64.30;;;;;;5009091;28;20225;-94
2023/05/10 14:27:06;;;;;;;34.40;6.57;;;22.60;64.20;;;;;;5010263;28;20205;-93
2023/05/10 14:29:33;;;;;;;55.37;8.37;;;22.70;64.30;;;;;;5004123;28;20586;-94
2023/05/10 14:32:01;;;;;;;36.47;6.17;;;22.70;64.30;;;;;;5007379;28;20608;-94
2023/05/10 14:34:28;;;;;;;36.43;6.77;;;22.70;64.20;;;;;;5008832;28;20331;-94
2023/05/10 14:36:55;;;;;;;38.67;6.60;;;22.70;64.20;;;;;;5009188;28;20220;-92
2023/05/10 14:39:29;;;;;;;32.67;6.47;;;22.80;64.30;;;;;;4991550;28;20216;-92
2023/05/10 14:41:56;;;;;;;43.43;7.07;;;22.80;64.30;;;;;;4989822;28;20210;-96
2023/05/10 14:44:25;;;;;;;24.77;5.47;;;22.80;64.20;;;;;;4989060;28;20244;-91
2023/05/10 14:46:52;;;;;;;36.63;6.60;;;22.80;64.20;;;;;;4989165;28;20240;-93
2023/05/10 14:49:22;;;;;;;49.03;7.50;;;22.80;64.20;;;;;;5005587;28;20205;-94
2023/05/10 14:51:49;;;;;;;36.53;6.60;;;22.80;64.10;;;;;;5008116;28;20292;-93
2023/05/10 14:54:16;;;;;;;36.60;6.67;;;22.90;64.20;;;;;;5010619;28;20213;-93
2023/05/10 14:56:45;;;;;;;40.57;6.73;;;22.90;64.10;;;;;;5013156;28;20557;-94
2023/05/10 14:59:12;;;;;;;30.03;6.27;;;23.00;64.20;;;;;;5031937;28;20201;-94
2023/05/10 15:01:41;;;;;;;42.03;7.23;;;22.90;64.10;;;;;;5031792;28;20207;-93
2023/05/10 15:04:08;;;;;;;40.07;7.07;;;23.00;64.10;;;;;;5014014;28;20762;-93
2023/05/10 15:06:39;;;;;;;34.10;7.37;;;23.00;64.10;;;;;;5011991;28;20205;-91
2023/05/10 15:09:07;;;;;;;27.57;6.20;;;23.00;64.10;;;;;;5011142;28;20285;-91
2023/05/10 15:11:39;;;;;;;33.93;7.07;;;23.00;64.00;;;;;;5011356;28;20264;-93
2023/05/10 15:14:08;;;;;;;23.43;6.40;;;23.00;64.00;;;;;;5010664;28;20224;-92
2023/05/10 15:16:38;;;;;;;24.10;6.13;;;23.00;64.00;;;;;;5011263;28;20205;-92
2023/05/10 15:19:05;;;;;;;31.57;6.87;;;23.00;64.10;;;;;;5009762;28;20252;-94
2023/05/10 15:21:38;;;;;;;35.93;7.20;;;23.00;64.00;;;;;;5008980;28;20211;-92
2023/05/10 15:24:06;;;;;;;39.57;7.57;;;23.10;64.10;;;;;;5008309;28;20233;-92
2023/05/10 15:26:35;;;;;;;35.83;7.20;;;23.10;64.10;;;;;;5006092;28;20796;-92
2023/05/10 15:29:02;;;;;;;48.27;7.93;;;23.00;63.90;;;;;;5003817;28;20307;-91
2023/05/10 15:31:34;;;;;;;47.03;7.87;;;23.00;63.90;;;;;;5008583;28;20201;-84
2023/05/10 15:34:02;;;;;;;87.70;11.27;;;23.00;63.80;;;;;;5001164;28;20212;-93
2023/05/10 15:36:31;;;;;;;36.80;7.47;;;23.10;63.80;;;;;;5007975;28;20193;-91
2023/05/10 15:38:58;;;;;;;46.03;7.77;;;23.10;63.70;;;;;;5002913;28;20752;-93
2023/05/10 15:41:28;;;;;;;34.33;7.37;;;23.10;63.80;;;;;;5000782;28;20198;-92
2023/05/10 15:43:55;;;;;;;57.40;8.27;;;23.10;63.70;;;;;;5004596;28;20281;-92
2023/05/10 15:46:22;;;;;;;42.47;7.47;;;23.10;63.80;;;;;;5007941;28;20239;-92
2023/05/10 15:48:51;;;;;;;32.70;6.83;;;23.10;63.70;;;;;;5007398;28;20213;-94
2023/05/10 15:51:18;;;;;;;38.80;7.03;;;23.10;63.70;;;;;;5008589;28;20244;-93
2023/05/10 15:53:45;;;;;;;49.73;7.97;;;23.10;63.70;;;;;;5004693;28;20209;-92
2023/05/10 15:56:23;;;;;;;38.43;7.03;;;23.10;63.70;;;;;;5005834;28;20296;-92
2023/05/10 15:58:51;;;;;;;37.03;6.87;;;23.10;63.60;;;;;;5011935;28;20263;-92
2023/05/10 16:01:18;;;;;;;55.07;8.77;;;23.20;63.80;;;;;;5012222;28;20204;-93
2023/05/10 16:03:45;;;;;;;38.03;7.00;;;23.20;63.80;;;;;;5011639;28;20209;-93
2023/05/10 16:06:13;;;;;;;48.60;8.23;;;23.20;63.70;;;;;;5012266;28;20327;-94
2023/05/10 16:08:40;;;;;;;50.73;8.37;;;23.20;63.80;;;;;;5011748;28;20205;-92
2023/05/10 16:11:08;;;;;;;43.33;7.33;;;23.20;63.70;;;;;;5012134;28;20261;-91
2023/05/10 16:13:35;;;;;;;35.40;6.27;;;23.20;63.80;;;;;;5011025;28;20208;-92
2023/05/10 16:16:02;;;;;;;37.37;6.60;;;23.20;63.70;;;;;;5011409;28;20256;-91
2023/05/10 16:18:29;;;;;;;41.17;7.03;;;23.20;63.70;;;;;;5012136;28;20197;-91
2023/05/10 16:20:59;;;;;;;38.00;7.03;;;23.20;63.70;;;;;;5011826;28;20212;-92
2023/05/10 16:23:28;;;;;;;39.93;7.17;;;23.20;63.70;;;;;;5011505;28;20206;-92
2023/05/10 16:25:55;;;;;;;47.97;7.40;;;23.20;63.70;;;;;;5011850;28;20313;-92
2023/05/10 16:28:27;;;;;;;45.57;7.53;;;23.20;63.70;;;;;;5011344;28;20211;-93
2023/05/10 16:30:54;;;;;;;31.70;6.20;;;23.30;63.80;;;;;;5010892;28;20248;-91
2023/05/10 16:33:21;;;;;;;44.27;6.77;;;23.30;63.80;;;;;;5006575;28;20295;-92
2023/05/10 16:35:48;;;;;;;40.73;6.60;;;23.30;63.80;;;;;;5009953;28;20259;-92
2023/05/10 16:38:15;;;;;;;37.20;6.57;;;23.30;63.80;;;;;;5011186;28;20288;-92
2023/05/10 16:40:44;;;;;;;39.53;6.87;;;23.30;63.80;;;;;;5011452;28;20203;-92
2023/05/10 16:43:11;;;;;;;41.10;6.97;;;23.30;63.80;;;;;;5011330;28;20216;-94
2023/05/10 16:45:39;;;;;;;31.57;6.33;;;23.30;63.80;;;;;;5010809;28;20233;-92
2023/05/10 16:48:06;;;;;;;34.27;5.90;;;23.30;63.90;;;;;;5007230;28;20294;-91
2023/05/10 16:50:33;;;;;;;29.30;5.90;;;23.30;63.80;;;;;;5011459;28;20254;-91
2023/05/10 16:53:01;;;;;;;26.90;6.03;;;23.30;63.70;;;;;;5005422;28;20256;-92
2023/05/10 16:55:30;;;;;;;29.60;6.27;;;23.30;64.40;;;;;;5011793;28;20639;-92
2023/05/10 16:57:59;;;;;;;23.13;5.67;;;23.30;63.60;;;;;;5012172;28;20216;-92
2023/05/10 17:00:27;;;;;;;32.97;6.33;;;23.30;63.60;;;;;;5010706;28;20211;-94
2023/05/10 17:02:56;;;;;;;40.43;7.20;;;23.30;63.60;;;;;;5010733;28;20240;-93
2023/05/10 17:05:23;;;;;;;27.57;5.53;;;23.30;63.60;;;;;;5011461;28;20236;-92
2023/05/10 17:07:50;;;;;;;40.87;6.93;;;23.30;63.60;;;;;;5009394;28;20215;-92
2023/05/10 17:10:20;;;;;;;31.47;5.80;;;23.30;63.60;;;;;;5008137;28;20587;-92
2023/05/10 17:12:48;;;;;;;24.13;5.30;;;23.30;63.60;;;;;;4996645;28;20202;-91
2023/05/10 17:15:17;;;;;;;29.57;6.03;;;23.30;63.60;;;;;;4999476;28;20769;-93
2023/05/10 17:17:44;;;;;;;23.57;5.40;;;23.40;63.70;;;;;;5010629;28;20204;-93